createdAt,value
2019-04-06T00:00:05.243Z,32.17
2019-04-06T00:02:41.254Z,32.01
2019-04-06T00:05:13.769Z,32.01
2019-04-06T00:07:46.167Z,31.93
2019-04-06T00:10:18.538Z,32.98
2019-04-06T00:12:50.156Z,32.98
2019-04-06T00:15:21.693Z,33.12
2019-04-06T00:17:53.374Z,33.59
2019-04-06T00:20:24.977Z,33.59
2019-04-06T00:22:56.566Z,33.51
2019-04-06T00:25:28.050Z,33.21
2019-04-06T00:27:59.688Z,32.18
2019-04-06T00:30:33.463Z,32.77
2019-04-06T00:33:08.561Z,33.98
2019-04-06T00:35:40.476Z,34.69
2019-04-06T00:38:12.533Z,34.88
2019-04-06T00:40:44.281Z,34.88
2019-04-06T00:43:15.974Z,34.86
2019-04-06T00:45:47.500Z,34.86
2019-04-06T00:48:19.123Z,35.61
2019-04-06T00:50:50.776Z,35.51
2019-04-06T00:53:22.344Z,35.56
2019-04-06T00:55:55.832Z,35.77
2019-04-06T00:58:27.421Z,35.73
2019-04-06T01:00:59.272Z,35.21
2019-04-06T01:03:31.697Z,35.21
2019-04-06T01:06:03.514Z,35.33
2019-04-06T01:08:35.434Z,36.56
2019-04-06T01:11:07.608Z,36.41
2019-04-06T01:13:39.057Z,36.58
2019-04-06T01:16:10.678Z,35.85
2019-04-06T01:18:42.499Z,35.40
2019-04-06T01:21:14.038Z,34.06
2019-04-06T01:23:45.849Z,34.06
2019-04-06T01:26:17.356Z,34.99
2019-04-06T01:28:49.151Z,35.44
2019-04-06T01:31:20.768Z,35.37
2019-04-06T01:33:52.524Z,35.45
2019-04-06T01:36:23.939Z,35.04
2019-04-06T01:38:55.426Z,35.67
2019-04-06T01:41:29.954Z,34.52
2019-04-06T01:44:01.541Z,35.21
2019-04-06T01:46:33.031Z,35.44
2019-04-06T01:49:05.008Z,36.08
2019-04-06T01:51:36.682Z,37.12
2019-04-06T01:54:08.312Z,37.53
2019-04-06T01:56:40.032Z,37.71
2019-04-06T01:59:11.727Z,38.79
2019-04-06T02:01:57.098Z,39.01
2019-04-06T02:04:28.877Z,39.01
2019-04-06T02:07:00.781Z,38.79
2019-04-06T02:09:33.269Z,38.88
2019-04-06T02:12:05.221Z,40.04
2019-04-06T02:14:36.734Z,40.04
2019-04-06T02:17:08.585Z,39.57
2019-04-06T02:19:40.075Z,40.28
2019-04-06T02:22:11.859Z,40.62
2019-04-06T02:24:43.483Z,40.35
2019-04-06T02:27:14.962Z,39.90
2019-04-06T02:29:46.631Z,38.44
2019-04-06T02:32:46.201Z,37.01
2019-04-06T02:35:54.688Z,37.01
2019-04-06T02:38:54.409Z,36.78
2019-04-06T02:42:03.630Z,35.20
2019-04-06T02:44:35.671Z,35.56
2019-04-06T02:47:07.887Z,35.92
2019-04-06T02:49:39.601Z,35.65
2019-04-06T02:52:11.668Z,35.40
2019-04-06T02:54:44.523Z,35.06
2019-04-06T02:57:16.056Z,35.72
2019-04-06T02:59:47.870Z,35.72
2019-04-06T03:02:19.617Z,33.16
2019-04-06T03:04:51.341Z,33.16
2019-04-06T03:07:23.226Z,34.04
2019-04-06T03:09:55.234Z,34.77
2019-04-06T03:12:27.356Z,34.77
2019-04-06T03:14:58.988Z,34.25
2019-04-06T03:17:31.054Z,31.47
2019-04-06T03:20:02.859Z,31.47
2019-04-06T03:22:34.629Z,31.14
2019-04-06T03:25:06.381Z,31.23
2019-04-06T03:27:37.964Z,30.14
2019-04-06T03:30:10.183Z,30.14
2019-04-06T03:32:44.801Z,29.64
2019-04-06T03:35:16.626Z,29.09
2019-04-06T03:37:48.332Z,29.06
2019-04-06T03:40:20.013Z,29.06
2019-04-06T03:42:51.568Z,28.84
2019-04-06T03:45:22.865Z,28.48
2019-04-06T03:47:56.335Z,28.48
2019-04-06T03:50:27.775Z,27.41
2019-04-06T03:52:59.639Z,26.76
2019-04-06T03:55:31.125Z,26.76
2019-04-06T03:58:02.690Z,25.84
2019-04-06T04:00:34.293Z,25.50
2019-04-06T04:03:06.186Z,26.48
2019-04-06T04:05:37.375Z,25.89
2019-04-06T04:08:08.530Z,25.89
2019-04-06T04:10:41.684Z,25.33
2019-04-06T04:13:13.397Z,25.92
2019-04-06T04:15:44.897Z,25.51
2019-04-06T04:18:16.364Z,25.97
2019-04-06T04:20:48.611Z,24.90
2019-04-06T04:23:20.192Z,24.90
2019-04-06T04:25:52.251Z,25.14
2019-04-06T04:28:23.929Z,25.77
2019-04-06T04:30:55.330Z,26.61
2019-04-06T04:33:26.852Z,26.57
2019-04-06T04:35:58.708Z,25.57
2019-04-06T04:38:30.556Z,26.41
2019-04-06T04:41:02.016Z,26.41
2019-04-06T04:43:33.764Z,25.05
2019-04-06T04:46:05.434Z,25.12
2019-04-06T04:48:36.843Z,25.27
2019-04-06T04:51:09.265Z,25.27
2019-04-06T04:53:40.913Z,24.92
2019-04-06T04:56:12.657Z,23.38
2019-04-06T04:58:44.806Z,23.76
2019-04-06T05:01:16.915Z,23.76
2019-04-06T05:03:48.700Z,23.33
2019-04-06T05:06:20.270Z,23.50
2019-04-06T05:08:52.060Z,23.12
2019-04-06T05:11:23.399Z,23.72
2019-04-06T05:14:31.353Z,24.14
2019-04-06T05:17:03.107Z,27.58
2019-04-06T05:19:34.660Z,27.58
2019-04-06T05:22:08.306Z,24.60
2019-04-06T05:24:39.821Z,24.60
2019-04-06T05:27:11.616Z,25.12
2019-04-06T05:29:43.327Z,23.65
2019-04-06T05:32:15.075Z,23.11
2019-04-06T05:34:47.073Z,22.93
2019-04-06T05:37:18.500Z,22.93
2019-04-06T05:39:51.026Z,22.94
2019-04-06T05:42:22.502Z,22.99
2019-04-06T05:44:53.999Z,24.08
2019-04-06T05:47:25.454Z,21.05
2019-04-06T05:49:56.725Z,22.37
2019-04-06T05:52:29.073Z,21.04
2019-04-06T05:55:00.779Z,21.74
2019-04-06T05:57:32.831Z,21.75
2019-04-06T06:00:05.135Z,22.06
2019-04-06T06:02:40.304Z,21.02
2019-04-06T06:05:10.529Z,21.63
2019-04-06T06:07:42.752Z,21.63
2019-04-06T06:10:14.493Z,21.14
2019-04-06T06:12:46.139Z,21.14
2019-04-06T06:15:18.977Z,20.03
2019-04-06T06:17:50.697Z,20.16
2019-04-06T06:20:26.683Z,19.94
2019-04-06T06:22:58.316Z,20.13
2019-04-06T06:25:29.742Z,20.13
2019-04-06T06:28:01.681Z,20.11
2019-04-06T06:30:33.421Z,20.82
2019-04-06T06:33:05.158Z,21.61
2019-04-06T06:35:37.014Z,21.61
2019-04-06T06:38:08.300Z,20.75
2019-04-06T06:40:39.822Z,21.12
2019-04-06T06:43:11.661Z,21.16
2019-04-06T06:45:43.095Z,21.16
2019-04-06T06:48:14.489Z,22.72
2019-04-06T06:50:46.323Z,20.50
2019-04-06T06:53:17.977Z,20.50
2019-04-06T06:55:49.765Z,21.20
2019-04-06T06:58:25.541Z,21.39
2019-04-06T07:00:54.749Z,20.55
2019-04-06T07:03:26.004Z,19.99
2019-04-06T07:05:58.065Z,19.99
2019-04-06T07:08:29.306Z,20.66
2019-04-06T07:11:00.849Z,33.34
2019-04-06T07:13:32.483Z,34.54
2019-04-06T07:16:04.523Z,34.54
2019-04-06T07:18:36.384Z,39.26
2019-04-06T07:21:07.723Z,39.26
2019-04-06T07:23:39.313Z,25.24
2019-04-06T07:26:11.151Z,34.10
2019-04-06T07:28:43.079Z,26.10
2019-04-06T07:31:14.938Z,27.36
2019-04-06T07:33:46.505Z,26.90
2019-04-06T07:36:18.924Z,23.75
2019-04-06T07:38:50.732Z,21.12
2019-04-06T07:41:23.315Z,21.12
2019-04-06T07:43:54.993Z,27.57
2019-04-06T07:46:26.774Z,35.94
2019-04-06T07:49:07.789Z,31.02
2019-04-06T07:51:31.728Z,34.00
2019-04-06T07:54:03.635Z,34.05
2019-04-06T07:56:35.238Z,36.54
2019-04-06T07:59:07.578Z,34.38
2019-04-06T08:01:39.359Z,26.99
2019-04-06T08:04:11.435Z,34.05
2019-04-06T08:06:43.209Z,34.05
2019-04-06T08:09:14.979Z,24.52
2019-04-06T08:11:46.955Z,31.47
2019-04-06T08:14:18.592Z,31.47
2019-04-06T08:16:50.317Z,38.90
2019-04-06T08:19:21.708Z,26.41
2019-04-06T08:21:53.721Z,35.83
2019-04-06T08:24:25.345Z,35.83
2019-04-06T08:26:57.225Z,21.59
2019-04-06T08:29:29.014Z,27.50
2019-04-06T08:32:00.783Z,20.42
2019-04-06T08:34:33.399Z,20.42
2019-04-06T08:37:05.044Z,19.21
2019-04-06T08:39:36.820Z,19.90
2019-04-06T08:42:08.481Z,18.94
2019-04-06T08:44:40.304Z,18.94
2019-04-06T08:47:13.862Z,18.72
2019-04-06T08:49:45.924Z,18.72
2019-04-06T08:52:17.755Z,19.16
2019-04-06T08:54:49.610Z,18.15
2019-04-06T08:57:22.923Z,19.36
2019-04-06T08:59:54.744Z,19.36
2019-04-06T09:02:28.529Z,19.27
2019-04-06T09:04:59.983Z,17.91
2019-04-06T09:07:31.523Z,17.91
2019-04-06T09:10:03.111Z,18.61
2019-04-06T09:12:34.597Z,17.90
2019-04-06T09:15:07.568Z,18.51
2019-04-06T09:17:39.494Z,18.51
2019-04-06T09:20:11.411Z,18.32
2019-04-06T09:22:42.963Z,18.81
2019-04-06T09:25:14.866Z,19.37
2019-04-06T09:27:46.510Z,19.37
2019-04-06T09:30:18.289Z,18.88
2019-04-06T09:32:50.113Z,18.94
2019-04-06T09:35:21.574Z,18.82
2019-04-06T09:37:53.322Z,18.77
2019-04-06T09:40:24.943Z,18.93
2019-04-06T09:42:56.874Z,19.18
2019-04-06T09:45:46.160Z,19.29
2019-04-06T09:48:31.599Z,19.29
2019-04-06T09:51:34.334Z,19.06
2019-04-06T09:54:19.736Z,18.92
2019-04-06T09:57:18.785Z,18.58
2019-04-06T10:00:12.402Z,18.93
2019-04-06T10:03:18.452Z,18.49
2019-04-06T10:06:09.305Z,18.71
2019-04-06T10:09:11.599Z,18.71
2019-04-06T10:12:03.947Z,18.77
2019-04-06T10:14:47.844Z,19.06
2019-04-06T10:17:29.608Z,19.89
2019-04-06T10:20:20.080Z,18.54
2019-04-06T10:23:16.392Z,18.54
2019-04-06T10:25:56.711Z,18.95
2019-04-06T10:28:47.877Z,18.87
2019-04-06T10:31:47.584Z,18.87
2019-04-06T10:34:37.048Z,18.88
2019-04-06T10:37:17.736Z,18.84
2019-04-06T10:39:55.441Z,19.11
2019-04-06T10:42:54.642Z,18.99
2019-04-06T10:45:36.512Z,19.57
2019-04-06T10:48:26.373Z,19.36
2019-04-06T10:51:12.336Z,19.41
2019-04-06T10:54:08.725Z,19.17
2019-04-06T10:56:54.587Z,19.17
2019-04-06T10:59:37.606Z,19.28
2019-04-06T11:02:26.805Z,18.77
2019-04-06T11:05:23.554Z,18.77
2019-04-06T11:08:03.842Z,18.62
2019-04-06T11:10:52.056Z,19.40
2019-04-06T11:13:51.675Z,18.87
2019-04-06T11:16:38.865Z,18.87
2019-04-06T11:19:32.570Z,18.67
2019-04-06T11:22:26.017Z,18.80
2019-04-06T11:25:23.066Z,18.80
2019-04-06T11:28:07.251Z,18.66
2019-04-06T11:31:03.748Z,19.00
2019-04-06T11:33:54.162Z,19.00
2019-04-06T11:36:54.563Z,18.61
2019-04-06T11:39:35.999Z,18.27
2019-04-06T11:42:14.824Z,18.17
2019-04-06T11:44:55.098Z,18.53
2019-04-06T11:47:48.589Z,18.53
2019-04-06T11:50:47.897Z,18.58
2019-04-06T11:53:32.097Z,18.68
2019-04-06T11:56:09.402Z,18.68
2019-04-06T11:59:08.659Z,18.53
2019-04-06T12:01:50.349Z,18.53
2019-04-06T12:04:46.459Z,18.83
2019-04-06T12:07:24.827Z,19.51
2019-04-06T12:10:27.466Z,19.51
2019-04-06T12:13:12.594Z,19.77
2019-04-06T12:15:58.957Z,19.96
2019-04-06T12:18:37.597Z,19.92
2019-04-06T12:21:15.188Z,20.17
2019-04-06T12:24:18.020Z,19.95
2019-04-06T12:27:06.785Z,20.00
2019-04-06T12:29:57.090Z,20.02
2019-04-06T12:32:37.878Z,20.30
2019-04-06T12:35:42.852Z,20.30
2019-04-06T12:38:30.000Z,20.23
2019-04-06T12:41:21.604Z,20.56
2019-04-06T12:44:17.909Z,20.77
2019-04-06T12:47:04.580Z,21.57
2019-04-06T12:49:43.944Z,21.57
2019-04-06T12:52:43.928Z,22.33
2019-04-06T12:55:30.738Z,22.87
2019-04-06T12:58:34.010Z,22.65
2019-04-06T13:01:27.394Z,22.65
2019-04-06T13:04:21.258Z,23.55
2019-04-06T13:07:11.753Z,22.51
2019-04-06T13:10:12.232Z,22.27
2019-04-06T13:13:14.051Z,22.22
2019-04-06T13:16:05.192Z,22.83
2019-04-06T13:18:45.018Z,23.03
2019-04-06T13:21:29.352Z,23.31
2019-04-06T13:24:25.773Z,23.31
2019-04-06T13:27:16.459Z,23.14
2019-04-06T13:30:25.501Z,23.08
2019-04-06T13:33:05.940Z,23.24
2019-04-06T13:35:59.975Z,23.42
2019-04-06T13:38:48.340Z,23.33
2019-04-06T13:41:41.885Z,23.33
2019-04-06T13:44:29.788Z,23.33
2019-04-06T13:47:16.956Z,23.55
2019-04-06T13:50:13.176Z,23.55
2019-04-06T13:53:02.477Z,23.51
2019-04-06T13:55:56.366Z,23.83
2019-04-06T13:58:56.400Z,23.99
2019-04-06T14:01:46.761Z,24.06
2019-04-06T14:04:40.132Z,24.59
2019-04-06T14:07:24.265Z,24.59
2019-04-06T14:10:26.843Z,24.86
2019-04-06T14:13:33.004Z,25.17
2019-04-06T14:16:35.691Z,25.62
2019-04-06T14:19:16.900Z,26.25
2019-04-06T14:22:09.319Z,26.25
2019-04-06T14:25:18.095Z,26.97
2019-04-06T14:28:09.255Z,26.97
2019-04-06T14:30:59.893Z,27.44
2019-04-06T14:33:50.509Z,27.65
2019-04-06T14:36:38.114Z,27.65
2019-04-06T14:39:23.442Z,27.80
2019-04-06T14:42:23.473Z,28.26
2019-04-06T14:45:14.625Z,28.26
2019-04-06T14:48:14.849Z,28.50
2019-04-06T14:50:54.004Z,28.64
2019-04-06T14:53:44.666Z,28.64
2019-04-06T14:56:33.575Z,29.08
2019-04-06T14:59:16.872Z,29.08
2019-04-06T15:02:00.910Z,29.31
2019-04-06T15:04:42.314Z,29.53
2019-04-06T15:07:44.935Z,29.58
2019-04-06T15:10:35.524Z,30.06
2019-04-06T15:13:45.194Z,30.17
2019-04-06T15:16:41.600Z,30.17
2019-04-06T15:19:39.237Z,30.84
2019-04-06T15:22:28.708Z,30.83
2019-04-06T15:25:08.654Z,30.83
2019-04-06T15:28:05.299Z,30.96
2019-04-06T15:30:49.172Z,31.02
2019-04-06T15:33:38.988Z,31.19
2019-04-06T15:36:29.454Z,31.19
2019-04-06T15:39:09.764Z,31.77
2019-04-06T15:41:59.380Z,32.20
2019-04-06T15:45:03.033Z,32.42
2019-04-06T15:47:57.362Z,32.19
2019-04-06T15:50:40.199Z,32.19
2019-04-06T15:53:29.454Z,31.95
2019-04-06T15:56:14.862Z,31.95
2019-04-06T15:59:03.092Z,32.21
2019-04-06T16:01:45.049Z,32.76
2019-04-06T16:04:39.002Z,32.66
2019-04-06T16:07:41.858Z,32.66
2019-04-06T16:10:38.551Z,32.69
2019-04-06T16:13:27.986Z,32.96
2019-04-06T16:16:11.630Z,32.96
2019-04-06T16:18:54.577Z,33.29
2019-04-06T16:21:45.106Z,33.29
2019-04-06T16:24:38.878Z,33.53
2019-04-06T16:27:42.605Z,33.62
2019-04-06T16:30:43.001Z,33.90
2019-04-06T16:33:41.222Z,33.90
2019-04-06T16:36:31.187Z,34.44
2019-04-06T16:39:21.975Z,34.39
2019-04-06T16:42:16.937Z,34.39
2019-04-06T16:45:09.481Z,34.52
2019-04-06T16:48:18.386Z,34.36
2019-04-06T16:51:02.359Z,34.14
2019-04-06T16:53:55.968Z,34.48
2019-04-06T16:56:40.426Z,34.32
2019-04-06T16:59:34.008Z,34.26
2019-04-06T17:02:32.572Z,34.02
2019-04-06T17:05:23.311Z,34.05
2019-04-06T17:08:11.171Z,34.18
2019-04-06T17:11:12.965Z,34.51
2019-04-06T17:14:22.570Z,34.49
2019-04-06T17:17:11.863Z,35.06
2019-04-06T17:19:58.686Z,35.06
2019-04-06T17:22:58.210Z,35.02
2019-04-06T17:25:47.672Z,35.21
2019-04-06T17:28:36.559Z,35.21
2019-04-06T17:31:16.395Z,35.05
2019-04-06T17:34:13.022Z,34.32
2019-04-06T17:36:51.843Z,34.32
2019-04-06T17:39:42.719Z,34.97
2019-04-06T17:42:22.391Z,34.93
2019-04-06T17:45:07.029Z,34.93
2019-04-06T17:48:15.924Z,34.70
2019-04-06T17:51:02.220Z,34.82
2019-04-06T17:53:46.566Z,34.85
2019-04-06T17:56:43.187Z,34.93
2019-04-06T17:59:30.251Z,34.93
2019-04-06T18:02:21.083Z,34.54
2019-04-06T18:05:11.250Z,34.79
2019-04-06T18:08:03.643Z,34.75
2019-04-06T18:10:45.492Z,34.88
2019-04-06T18:13:22.968Z,34.90
2019-04-06T18:15:54.822Z,35.22
2019-04-06T18:18:26.860Z,35.22
2019-04-06T18:20:58.412Z,35.32
2019-04-06T18:23:30.097Z,35.19
2019-04-06T18:26:01.885Z,35.15
2019-04-06T18:28:33.965Z,35.03
2019-04-06T18:31:21.832Z,35.31
2019-04-06T18:33:53.617Z,35.22
2019-04-06T18:36:30.021Z,35.74
2019-04-06T18:39:16.108Z,35.82
2019-04-06T18:41:47.647Z,35.62
2019-04-06T18:44:19.047Z,35.44
2019-04-06T18:46:50.736Z,35.86
2019-04-06T18:49:22.748Z,36.18
2019-04-06T18:51:54.182Z,36.19
2019-04-06T18:54:25.918Z,36.19
2019-04-06T18:56:58.069Z,35.94
2019-04-06T18:59:29.618Z,35.87
2019-04-06T19:02:01.561Z,36.32
2019-04-06T19:04:33.914Z,36.57
2019-04-06T19:07:06.138Z,36.44
2019-04-06T19:09:37.632Z,36.44
2019-04-06T19:12:09.469Z,36.18
2019-04-06T19:14:41.589Z,36.18
2019-04-06T19:17:13.192Z,35.97
2019-04-06T19:19:45.511Z,36.43
2019-04-06T19:22:17.300Z,36.43
2019-04-06T19:24:49.064Z,36.22
2019-04-06T19:27:20.673Z,36.24
2019-04-06T19:29:53.040Z,36.55
2019-04-06T19:32:28.173Z,36.55
2019-04-06T19:35:01.123Z,36.18
2019-04-06T19:37:33.055Z,36.18
2019-04-06T19:40:05.184Z,35.59
2019-04-06T19:42:37.365Z,35.59
2019-04-06T19:45:09.535Z,35.95
2019-04-06T19:47:41.120Z,36.28
2019-04-06T19:50:13.478Z,36.28
2019-04-06T19:52:48.519Z,35.87
2019-04-06T19:55:20.305Z,36.59
2019-04-06T19:57:52.059Z,36.37
2019-04-06T20:00:24.554Z,36.24
2019-04-06T20:02:56.320Z,36.38
2019-04-06T20:05:28.596Z,36.38
2019-04-06T20:08:08.202Z,37.51
2019-04-06T20:10:40.184Z,37.51
2019-04-06T20:13:12.094Z,38.80
2019-04-06T20:15:44.296Z,39.24
2019-04-06T20:18:16.226Z,39.24
2019-04-06T20:20:48.530Z,38.65
2019-04-06T20:23:20.253Z,38.78
2019-04-06T20:25:52.023Z,39.21
2019-04-06T20:28:24.360Z,38.67
2019-04-06T20:30:57.115Z,38.30
2019-04-06T20:33:28.813Z,38.30
2019-04-06T20:36:00.676Z,38.37
2019-04-06T20:38:32.572Z,38.55
2019-04-06T20:41:04.289Z,38.55
2019-04-06T20:43:36.752Z,38.73
2019-04-06T20:46:08.541Z,38.71
2019-04-06T20:48:41.283Z,39.00
2019-04-06T20:51:13.685Z,38.95
2019-04-06T20:53:45.347Z,38.70
2019-04-06T20:56:17.458Z,38.86
2019-04-06T20:58:49.363Z,39.25
2019-04-06T21:01:21.004Z,39.25
2019-04-06T21:03:59.911Z,39.18
2019-04-06T21:06:25.746Z,39.16
2019-04-06T21:08:57.588Z,39.16
2019-04-06T21:11:29.129Z,38.66
2019-04-06T21:14:00.913Z,38.18
2019-04-06T21:16:32.476Z,38.18
2019-04-06T21:19:05.141Z,38.46
2019-04-06T21:21:37.013Z,39.16
2019-04-06T21:24:08.424Z,39.16
2019-04-06T21:26:41.583Z,38.85
2019-04-06T21:29:13.692Z,38.49
2019-04-06T21:31:45.471Z,39.19
2019-04-06T21:34:17.498Z,38.81
2019-04-06T21:36:49.579Z,38.81
2019-04-06T21:39:21.339Z,39.17
2019-04-06T21:41:53.102Z,39.28
2019-04-06T21:44:24.439Z,39.11
2019-04-06T21:46:57.388Z,38.99
2019-04-06T21:49:29.098Z,39.03
2019-04-06T21:52:01.084Z,39.21
2019-04-06T21:54:32.685Z,39.21
2019-04-06T21:57:05.244Z,39.41
2019-04-06T21:59:36.895Z,39.31
2019-04-06T22:02:08.704Z,39.31
2019-04-06T22:04:40.356Z,40.28
2019-04-06T22:07:11.978Z,40.28
2019-04-06T22:09:43.956Z,40.51
2019-04-06T22:12:18.412Z,40.80
2019-04-06T22:14:50.655Z,40.94
2019-04-06T22:17:23.455Z,40.54
2019-04-06T22:19:55.104Z,40.73
2019-04-06T22:22:27.020Z,40.73
2019-04-06T22:24:58.854Z,41.06
2019-04-06T22:27:31.191Z,41.00
2019-04-06T22:30:03.927Z,41.19
2019-04-06T22:32:35.679Z,41.19
2019-04-06T22:35:07.448Z,41.19
2019-04-06T22:37:39.590Z,41.50
2019-04-06T22:40:11.511Z,41.54
2019-04-06T22:42:43.312Z,41.54
2019-04-06T22:45:17.420Z,41.75
2019-04-06T22:47:54.215Z,41.62
2019-04-06T22:50:25.853Z,41.98
2019-04-06T22:52:57.550Z,42.16
2019-04-06T22:55:29.784Z,42.10
2019-04-06T22:58:01.556Z,42.51
2019-04-06T23:00:43.106Z,42.16
2019-04-06T23:03:36.661Z,43.15
2019-04-06T23:06:12.903Z,43.15
2019-04-06T23:08:44.818Z,43.75
2019-04-06T23:11:17.196Z,44.21
2019-04-06T23:13:48.708Z,44.21
2019-04-06T23:16:20.677Z,44.62
2019-04-06T23:18:52.265Z,45.00
2019-04-06T23:21:24.285Z,46.13
2019-04-06T23:23:55.879Z,46.52
2019-04-06T23:26:27.490Z,46.12
2019-04-06T23:28:59.603Z,46.12
2019-04-06T23:31:31.119Z,46.39
2019-04-06T23:34:03.309Z,45.83
2019-04-06T23:36:35.107Z,46.26
2019-04-06T23:39:09.228Z,46.32
2019-04-06T23:41:41.330Z,47.13
2019-04-06T23:44:13.417Z,47.51
2019-04-06T23:46:45.070Z,48.14
2019-04-06T23:49:16.841Z,48.14
2019-04-06T23:51:48.666Z,48.82
2019-04-06T23:54:20.520Z,48.82
2019-04-06T23:56:52.107Z,49.78
2019-04-06T23:59:23.695Z,49.07
